Time;durP1;ratioP1;P1;durP2;ratioP2;P2;SDS_P1;SDS_P2;PMS_P1;PMS_P2;Temp;Humidity;BMP_temperature;BMP_pressure;BME280_temperature;BME280_humidity;BME280_pressure;Samples;Min_cycle;Max_cycle;Signal;HPM_P1;HPM_P2
2023/04/10 00:00:59;;;;;;;7.55;5.50;;;;;;;9.27;92.79;101102.84;6235854;22;20009;-82
2023/04/10 00:04:27;;;;;;;8.10;5.07;;;;;;;9.21;93.31;101109.50;6206065;23;20008;-83
2023/04/10 00:17:54;;;;;;;9.13;4.97;;;;;;;9.31;92.52;101104.25;6235893;22;20017;-82
2023/04/10 00:26:32;;;;;;;7.03;5.65;;;;;;;9.03;94.84;101107.69;6228092;22;20039;-83
2023/04/10 00:33:39;;;;;;;9.13;5.28;;;;;;;9.51;91.01;101100.59;6234141;22;20017;-80
2023/04/10 00:37:22;;;;;;;11.15;5.47;;;;;;;9.60;90.68;101105.06;6208885;23;20008;-86
2023/04/10 00:39:55;;;;;;;8.15;4.85;;;;;;;9.62;89.80;101104.91;6150169;23;20026;-85
2023/04/10 00:45:27;;;;;;;5.55;3.83;;;;;;;9.26;93.20;101102.00;6212399;23;20024;-82
2023/04/10 00:59:04;;;;;;;7.82;5.30;;;;;;;9.75;85.87;101093.03;6208927;23;20023;-83
2023/04/10 01:01:47;;;;;;;8.55;5.60;;;;;;;9.67;85.68;101108.81;6223334;23;20163;-84
2023/04/10 01:05:10;;;;;;;8.57;5.63;;;;;;;9.66;86.08;101107.13;6237690;23;20412;-82
2023/04/10 01:08:59;;;;;;;12.52;5.60;;;;;;;9.98;83.59;101111.22;6242742;23;20015;-82
2023/04/10 01:15:22;;;;;;;7.80;4.95;;;;;;;9.75;84.80;101103.63;6242763;22;20550;-84
2023/04/10 01:18:26;;;;;;;9.30;5.30;;;;;;;9.74;84.69;101101.13;6216255;23;20008;-80
2023/04/10 01:21:23;;;;;;;6.35;4.68;;;;;;;9.74;84.68;101101.94;6209056;23;20017;-82
2023/04/10 01:24:26;;;;;;;8.52;5.22;;;;;;;9.51;86.39;101099.78;6150867;23;20054;-84
2023/04/10 01:27:28;;;;;;;6.78;5.20;;;;;;;9.76;85.26;101102.66;6151183;23;20061;-85
2023/04/10 01:29:59;;;;;;;6.40;5.00;;;;;;;9.43;88.37;101111.06;6142586;23;20022;-84
2023/04/10 01:32:31;;;;;;;7.55;5.05;;;;;;;9.26;89.70;101106.47;6124848;23;20409;-80
2023/04/10 01:35:51;;;;;;;7.82;5.65;;;;;;;9.21;90.27;101103.41;6225083;22;20024;-84
2023/04/10 01:41:27;;;;;;;5.07;3.93;;;;;;;9.11;92.04;101102.56;6232491;22;19996;-83
2023/04/10 01:44:28;;;;;;;7.75;5.50;;;;;;;8.97;94.09;101105.63;6213207;22;20024;-82
2023/04/10 01:47:21;;;;;;;9.10;5.10;;;;;;;9.04;94.22;101104.09;6224970;22;20488;-83
2023/04/10 01:50:22;;;;;;;8.30;5.60;;;;;;;9.05;92.99;101095.19;6221162;23;20001;-82
2023/04/10 01:52:51;;;;;;;11.52;6.18;;;;;;;8.83;95.72;101102.41;6126697;23;20006;-85
2023/04/10 01:58:45;;;;;;;9.90;6.10;;;;;;;9.09;92.72;101099.22;6239975;22;20047;-82
2023/04/10 02:07:42;;;;;;;9.13;4.55;;;;;;;8.67;97.22;101110.03;6239050;22;20075;-85
2023/04/10 02:11:08;;;;;;;8.15;5.57;;;;;;;8.81;97.05;101104.34;6233102;22;20027;-82
2023/04/10 02:18:44;;;;;;;8.30;5.80;;;;;;;8.63;100.00;101113.88;6120291;23;20034;-83
2023/04/10 02:21:57;;;;;;;8.80;5.97;;;;;;;8.46;100.00;101106.59;6120899;23;20105;-83
2023/04/10 02:24:53;;;;;;;9.57;5.25;;;;;;;8.59;100.00;101114.28;6140595;23;20044;-85
2023/04/10 02:27:59;;;;;;;11.70;5.88;;;;;;;8.46;100.00;101106.59;6155681;23;20025;-83
2023/04/10 02:34:04;;;;;;;8.20;5.65;;;;;;;8.27;100.00;101111.78;6238940;22;20457;-88
2023/04/10 02:39:42;;;;;;;8.95;6.05;;;;;;;7.91;100.00;101109.66;6245883;22;20088;-84
2023/04/10 02:42:08;;;;;;;7.93;5.63;;;;;;;7.84;100.00;101109.34;6208507;23;20031;-84
2023/04/10 02:44:44;;;;;;;8.38;6.68;;;;;;;7.73;100.00;101123.44;6211956;23;20004;-83
2023/04/10 02:47:50;;;;;;;8.93;5.97;;;;;;;7.72;100.00;101111.22;6241776;22;20039;-83
2023/04/10 02:51:14;;;;;;;8.05;5.72;;;;;;;7.82;100.00;101114.75;6231856;22;20027;-82
2023/04/10 02:54:36;;;;;;;9.85;5.80;;;;;;;7.84;100.00;101112.00;6187419;23;20025;-84
2023/04/10 02:57:37;;;;;;;7.55;5.60;;;;;;;7.90;100.00;101114.09;6212458;23;20032;-83
2023/04/10 03:00:46;;;;;;;8.65;6.25;;;;;;;7.75;100.00;101107.50;6208609;23;20005;-82
2023/04/10 03:09:45;;;;;;;8.43;5.70;;;;;;;7.58;100.00;101111.56;6201761;23;20031;-86
2023/04/10 03:12:17;;;;;;;7.97;5.75;;;;;;;7.51;100.00;101113.03;6205562;23;20009;-82
2023/04/10 03:15:09;;;;;;;6.90;5.15;;;;;;;7.61;100.00;101113.94;6206280;23;20013;-84
2023/04/10 03:17:58;;;;;;;8.23;5.93;;;;;;;7.45;100.00;101105.63;6207413;23;20000;-82
2023/04/10 03:33:40;;;;;;;9.48;6.13;;;;;;;8.00;100.00;101111.53;6240998;22;20000;-82
2023/04/10 03:36:27;;;;;;;8.60;6.03;;;;;;;7.84;100.00;101113.78;6213591;23;20052;-85
2023/04/10 03:41:40;;;;;;;16.50;5.97;;;;;;;8.06;100.00;101124.19;6231338;22;20035;-85
2023/04/10 03:44:51;;;;;;;7.80;5.57;;;;;;;8.07;100.00;101124.06;6215332;22;20017;-81
2023/04/10 03:52:42;;;;;;;7.07;4.78;;;;;;;7.72;100.00;101121.78;6175760;23;20017;-83
2023/04/10 03:55:31;;;;;;;7.68;5.53;;;;;;;7.54;100.00;101117.22;6170833;23;20022;-84
2023/04/10 03:57:56;;;;;;;7.97;5.15;;;;;;;7.64;100.00;101115.47;6190924;23;20009;-82
2023/04/10 04:00:42;;;;;;;8.05;5.10;;;;;;;7.64;100.00;101118.97;6203211;23;20061;-82
2023/04/10 04:03:26;;;;;;;7.22;4.82;;;;;;;7.97;100.00;101124.97;6185954;23;20105;-81
2023/04/10 04:06:30;;;;;;;8.32;5.03;;;;;;;8.01;100.00;101123.75;6182144;23;20013;-83
2023/04/10 04:10:04;;;;;;;11.38;4.85;;;;;;;7.90;100.00;101135.22;6158107;23;20085;-83
2023/04/10 04:28:39;;;;;;;6.97;5.28;;;;;;;8.12;100.00;101139.53;6240638;22;20005;-81
2023/04/10 04:31:31;;;;;;;8.98;5.22;;;;;;;8.20;100.00;101148.44;6147711;23;20035;-84
2023/04/10 04:34:31;;;;;;;7.45;4.68;;;;;;;8.10;100.00;101147.56;6229879;23;20096;-85
2023/04/10 04:37:37;;;;;;;7.10;4.88;;;;;;;7.97;100.00;101154.84;6236311;22;20027;-84
2023/04/10 04:44:33;;;;;;;6.85;5.13;;;;;;;7.67;100.00;101170.63;6239404;22;20020;-82
2023/04/10 04:47:37;;;;;;;7.75;4.90;;;;;;;7.88;100.00;101173.28;6244052;22;20040;-82
2023/04/10 04:54:19;;;;;;;8.23;5.22;;;;;;;7.53;100.00;101187.59;6212706;23;20051;-80
2023/04/10 05:05:53;;;;;;;9.07;5.72;;;;;;;7.71;100.00;101187.88;6244192;22;20023;-84
2023/04/10 05:08:33;;;;;;;8.77;5.50;;;;;;;7.81;100.00;101199.34;6218437;23;20012;-83
2023/04/10 05:11:44;;;;;;;7.55;5.57;;;;;;;8.32;100.00;101193.31;6208222;22;20015;-81
2023/04/10 05:14:48;;;;;;;;;;;;;;;8.24;100.00;101189.47;6217840;22;20039;-86
2023/04/10 05:17:37;;;;;;;9.55;5.97;;;;;;;8.54;100.00;101193.97;6151231;23;19931;-85
2023/04/10 05:20:35;;;;;;;12.40;5.78;;;;;;;9.14;100.00;101195.69;6119758;23;20014;-81
2023/04/10 05:23:35;;;;;;;11.65;5.38;;;;;;;9.12;99.38;101189.69;6237682;22;20075;-83
2023/04/10 05:26:19;;;;;;;12.00;6.03;;;;;;;9.00;97.40;101201.34;6216593;23;20027;-85
2023/04/10 05:29:30;;;;;;;7.38;5.15;;;;;;;10.06;87.89;101196.94;6221517;22;20032;-83
2023/04/10 05:32:13;;;;;;;10.37;4.67;;;;;;;10.47;79.67;101206.34;6207168;23;20017;-78
2023/04/10 05:35:01;;;;;;;7.97;4.93;;;;;;;10.17;82.40;101203.91;6231544;23;20060;-81
2023/04/10 05:37:57;;;;;;;6.30;4.72;;;;;;;11.78;72.90;101216.47;6183788;23;20356;-81
2023/04/10 05:40:55;;;;;;;10.13;5.00;;;;;;;11.34;72.55;101212.88;6206073;23;20035;-83
2023/04/10 05:43:57;;;;;;;9.32;4.78;;;;;;;11.83;67.27;101222.16;6141615;23;20022;-79
2023/04/10 05:46:53;;;;;;;8.50;4.13;;;;;;;12.47;63.30;101220.13;6078821;23;20023;-80
2023/04/10 05:50:17;;;;;;;5.78;4.13;;;;;;;11.59;65.93;101224.56;6216441;23;20024;-80
2023/04/10 05:53:02;;;;;;;6.80;4.25;;;;;;;10.78;70.35;101226.31;6235874;23;20109;-78
2023/04/10 05:55:43;;;;;;;7.93;5.07;;;;;;;10.67;75.36;101228.31;6186325;23;20016;-78
2023/04/10 06:01:14;;;;;;;12.57;4.70;;;;;;;11.49;69.43;101231.78;6242436;22;20053;-82
2023/04/10 06:03:48;;;;;;;7.63;4.65;;;;;;;12.50;63.68;101239.25;6222322;23;20013;-84
2023/04/10 06:06:16;;;;;;;8.45;5.13;;;;;;;12.05;65.03;101238.59;6198908;23;20343;-85
2023/04/10 06:08:42;;;;;;;6.75;4.80;;;;;;;12.70;63.66;101240.69;6205308;23;20004;-81
2023/04/10 06:15:07;;;;;;;;;;;;;;;12.35;61.27;101248.81;6188130;23;20084;-83
2023/04/10 06:18:06;;;;;;;9.82;4.60;;;;;;;13.51;58.63;101246.38;6204501;23;20034;-84
2023/04/10 06:20:38;;;;;;;10.00;4.13;;;;;;;14.10;54.26;101257.75;6182518;23;20047;-82
2023/04/10 06:25:58;;;;;;;5.55;3.88;;;;;;;14.51;53.97;101264.75;6230276;22;20031;-83
2023/04/10 06:31:14;;;;;;;8.80;3.90;;;;;;;15.28;50.87;101261.28;6238924;22;20104;-84
2023/04/10 06:34:02;;;;;;;5.47;3.63;;;;;;;15.31;50.80;101270.81;6214722;22;20011;-83
2023/04/10 06:37:26;;;;;;;5.70;3.65;;;;;;;14.46;52.63;101267.91;6238631;22;20012;-84
2023/04/10 06:44:11;;;;;;;9.10;3.88;;;;;;;14.49;54.09;101264.91;6241748;22;20016;-85
2023/04/10 06:49:50;;;;;;;8.13;4.95;;;;;;;14.98;54.11;101273.59;6242083;22;20031;-84
2023/04/10 07:07:49;;;;;;;8.18;4.40;;;;;;;14.44;56.41;101271.75;6240087;22;20027;-86
2023/04/10 07:45:55;;;;;;;9.93;4.43;;;;;;;17.24;48.77;101278.19;6240516;23;20008;-81
2023/04/10 07:48:24;;;;;;;7.45;4.43;;;;;;;17.94;47.10;101276.53;6214968;23;20032;-79
2023/04/10 07:51:26;;;;;;;6.60;4.15;;;;;;;16.65;50.60;101283.56;6235068;23;20004;-81
2023/04/10 07:57:28;;;;;;;7.07;4.00;;;;;;;16.87;49.24;101282.63;6210637;23;20036;-83
2023/04/10 08:00:22;;;;;;;9.23;3.90;;;;;;;16.42;49.75;101282.75;6212680;23;20325;-83
2023/04/10 08:03:36;;;;;;;6.13;3.35;;;;;;;16.79;48.41;101289.94;6190763;23;20049;-80
2023/04/10 08:07:05;;;;;;;9.32;3.22;;;;;;;15.81;50.21;101284.56;6212397;23;20016;-81
2023/04/10 08:13:09;;;;;;;4.85;3.20;;;;;;;17.40;44.52;101294.06;6213165;23;20009;-82
2023/04/10 08:19:02;;;;;;;4.20;2.80;;;;;;;17.03;44.43;101297.72;6210284;23;20304;-80
2023/04/10 08:21:38;;;;;;;4.72;2.95;;;;;;;16.78;43.69;101304.31;6161136;23;20023;-80
2023/04/10 08:24:07;;;;;;;4.40;2.53;;;;;;;16.38;42.40;101302.84;6185164;23;20013;-79
2023/04/10 08:26:34;;;;;;;4.53;2.17;;;;;;;15.99;43.47;101309.19;6184476;23;20013;-80
2023/04/10 08:29:33;;;;;;;3.90;2.63;;;;;;;16.17;42.79;101316.06;6211234;23;20009;-79
2023/04/10 08:38:37;;;;;;;5.25;2.78;;;;;;;16.44;40.23;101312.81;6212144;23;20021;-80
2023/04/10 08:41:05;;;;;;;7.53;2.95;;;;;;;16.40;41.53;101306.19;6209533;23;20043;-84
2023/04/10 08:43:46;;;;;;;3.78;2.55;;;;;;;17.29;39.69;101297.22;6207188;23;20055;-85
2023/04/10 08:46:35;;;;;;;3.65;2.40;;;;;;;17.47;38.74;101311.03;6237655;23;20379;-83
2023/04/10 08:49:43;;;;;;;4.00;2.42;;;;;;;17.07;36.86;101330.31;6241244;23;20016;-85
2023/04/10 08:53:06;;;;;;;3.33;2.25;;;;;;;16.89;38.37;101320.78;6242527;23;20080;-83
2023/04/10 09:04:56;;;;;;;2.58;2.35;;;;;;;17.09;39.23;101312.19;6184356;23;20041;-81
2023/04/10 09:08:53;;;;;;;3.55;2.60;;;;;;;17.86;36.87;101314.22;6183061;23;20028;-81
2023/04/10 09:12:52;;;;;;;4.78;2.17;;;;;;;16.98;38.29;101311.63;6149158;23;20054;-80
2023/04/10 09:16:26;;;;;;;4.78;2.85;;;;;;;17.21;38.00;101310.69;6061585;23;20089;-84
2023/04/10 09:18:55;;;;;;;4.35;2.63;;;;;;;17.18;37.37;101311.06;6050625;23;20027;-83
2023/04/10 09:21:35;;;;;;;4.93;2.60;;;;;;;17.89;37.60;101305.81;6059894;23;20063;-83
2023/04/10 09:26:48;;;;;;;2.80;2.00;;;;;;;17.38;36.34;101301.44;6179478;23;20056;-82
2023/04/10 09:29:52;;;;;;;2.95;1.92;;;;;;;17.39;36.29;101319.19;6182647;23;20022;-83
2023/04/10 09:32:42;;;;;;;3.45;1.92;;;;;;;17.50;35.61;101302.63;6174256;23;20025;-84
2023/04/10 09:38:29;;;;;;;3.10;2.40;;;;;;;17.69;35.22;101326.19;6244339;22;20000;-86
2023/04/10 09:52:37;;;;;;;;;;;;;;;18.86;34.23;101287.19;6227296;22;20032;-81
2023/04/10 10:02:00;;;;;;;2.78;2.28;;;;;;;18.96;33.57;101298.41;6243656;22;20008;-83
2023/04/10 10:04:55;;;;;;;2.70;1.98;;;;;;;18.26;35.17;101295.84;6219570;22;20016;-84
2023/04/10 10:07:39;;;;;;;3.20;2.40;;;;;;;19.16;34.08;101283.22;6213061;23;20047;-84
2023/04/10 10:19:35;;;;;;;2.67;2.20;;;;;;;20.15;31.44;101294.31;6239683;22;20004;-85
2023/04/10 10:39:29;;;;;;;3.67;2.58;;;;;;;19.81;32.64;101269.22;6181097;23;20064;-82
2023/04/10 11:27:47;;;;;;;;;;;;;;;21.77;30.03;101213.25;6287227;22;20067;-83
2023/04/10 11:30:40;;;;;;;5.32;3.65;;;;;;;20.31;32.38;101207.81;6321261;22;19959;-88
2023/04/10 11:33:27;;;;;;;;;;;;;;;21.23;30.83;101210.25;6275605;22;20039;-88
2023/04/10 11:36:34;;;;;;;;;;;;;;;20.11;32.62;101200.53;6309729;22;19911;-89
2023/04/10 11:46:21;;;;;;;5.03;3.20;;;;;;;22.02;29.55;101206.00;6314397;22;20075;-84
2023/04/10 11:58:35;;;;;;;4.75;3.40;;;;;;;17.75;37.85;101186.00;6327250;22;20037;-83
2023/04/10 12:18:35;;;;;;;5.57;3.13;;;;;;;17.26;38.57;101151.09;6317067;22;20071;-84
2023/04/10 12:21:02;;;;;;;3.75;2.65;;;;;;;17.32;38.84;101138.75;6299435;22;20343;-81
2023/04/10 12:23:35;;;;;;;4.55;2.88;;;;;;;16.99;38.56;101141.91;6302323;22;20098;-81
2023/04/10 12:26:34;;;;;;;3.67;2.45;;;;;;;17.00;38.98;101140.09;6331396;22;20041;-82
2023/04/10 12:29:14;;;;;;;8.80;3.50;;;;;;;16.86;39.34;101136.41;6276456;22;20048;-83
2023/04/10 12:32:21;;;;;;;4.30;3.22;;;;;;;16.65;38.57;101143.53;6301084;22;20004;-87
2023/04/10 12:37:56;;;;;;;6.77;3.17;;;;;;;16.77;38.55;101137.50;6335656;22;20023;-87
2023/04/10 12:50:39;;;;;;;6.50;3.60;;;;;;;17.09;39.16;101136.25;6331532;22;20061;-87
2023/04/10 12:53:45;;;;;;;4.25;2.97;;;;;;;16.96;38.76;101122.72;6318129;22;20065;-80
2023/04/10 12:56:16;;;;;;;3.65;2.85;;;;;;;16.95;37.13;101124.56;6291872;22;20087;-85
2023/04/10 12:58:48;;;;;;;5.88;3.08;;;;;;;16.63;38.00;101126.84;6277612;22;19999;-82
2023/04/10 13:01:23;;;;;;;7.00;2.95;;;;;;;16.53;37.50;101124.44;6296364;22;20042;-83
2023/04/10 13:04:30;;;;;;;3.90;2.90;;;;;;;16.34;39.12;101125.00;6317627;22;20014;-82
2023/04/10 13:06:58;;;;;;;4.78;2.47;;;;;;;16.44;37.92;101117.50;6321245;22;20082;-83
2023/04/10 13:09:33;;;;;;;6.03;2.40;;;;;;;16.74;37.25;101105.78;6301826;22;20022;-84
2023/04/10 13:12:15;;;;;;;4.50;2.90;;;;;;;16.95;36.96;101119.22;6291438;22;20021;-85
2023/04/10 13:14:41;;;;;;;4.03;2.63;;;;;;;16.87;37.36;101122.00;6321169;22;20090;-85
2023/04/10 13:17:16;;;;;;;3.63;2.90;;;;;;;16.89;38.07;101119.97;6324291;22;19995;-88
2023/04/10 13:19:45;;;;;;;4.82;3.00;;;;;;;16.87;38.69;101116.63;6328271;22;20007;-82
2023/04/10 13:22:12;;;;;;;6.35;3.47;;;;;;;16.82;39.22;101113.72;6299109;22;20007;-84
2023/04/10 13:24:37;;;;;;;3.72;2.60;;;;;;;16.86;39.67;101112.31;6321804;22;20090;-83
2023/04/10 13:27:06;;;;;;;7.15;2.67;;;;;;;16.95;38.26;101119.22;6314781;22;20038;-85
2023/04/10 13:29:32;;;;;;;4.18;3.13;;;;;;;16.70;38.27;101104.50;6320593;22;20018;-83
2023/04/10 13:32:09;;;;;;;4.53;2.85;;;;;;;16.78;37.82;101103.56;6295374;22;20030;-84
2023/04/10 13:34:38;;;;;;;4.25;2.78;;;;;;;16.63;38.39;101098.25;6320467;22;20004;-82
2023/04/10 13:37:03;;;;;;;4.25;2.70;;;;;;;16.92;38.15;101100.84;6316191;22;20007;-86
2023/04/10 13:39:32;;;;;;;4.32;2.78;;;;;;;16.83;38.95;101104.66;6316142;22;20307;-86
2023/04/10 13:42:12;;;;;;;5.60;3.08;;;;;;;16.74;39.54;101095.06;6318992;22;20003;-81
2023/04/10 13:44:37;;;;;;;7.80;3.15;;;;;;;16.48;39.48;101095.53;6327160;22;20018;-84
2023/04/10 13:47:09;;;;;;;5.72;2.90;;;;;;;16.45;39.30;101089.72;6325737;22;20007;-86
2023/04/10 13:49:34;;;;;;;6.90;3.30;;;;;;;16.31;40.52;101085.22;6330491;22;20007;-85
2023/04/10 13:52:03;;;;;;;8.05;3.53;;;;;;;16.56;39.88;101083.94;6299287;22;20015;-84
2023/04/10 13:54:35;;;;;;;8.48;2.90;;;;;;;16.79;39.81;101086.47;6205740;22;20015;-85
2023/04/10 13:57:03;;;;;;;5.53;2.90;;;;;;;16.71;38.63;101079.38;6318156;22;20014;-86
2023/04/10 13:59:32;;;;;;;5.38;2.78;;;;;;;16.51;38.39;101067.56;6320308;22;20011;-81
2023/04/10 14:01:57;;;;;;;6.72;2.47;;;;;;;16.88;38.11;101062.06;6320123;22;20011;-85
2023/04/10 14:04:44;;;;;;;3.53;2.65;;;;;;;16.60;38.56;101066.50;6319489;22;20094;-85
2023/04/10 14:07:22;;;;;;;3.90;2.85;;;;;;;16.57;38.88;101066.88;6323174;22;20007;-85
2023/04/10 14:09:56;;;;;;;4.05;2.70;;;;;;;16.71;38.61;101063.31;6312856;22;20007;-85
2023/04/10 14:12:22;;;;;;;4.00;2.47;;;;;;;16.77;37.87;101059.88;6315955;22;20090;-83
2023/04/10 14:14:59;;;;;;;4.43;2.63;;;;;;;16.79;36.58;101057.88;6299771;22;20011;-83
2023/04/10 14:17:25;;;;;;;3.88;2.75;;;;;;;16.84;36.53;101052.75;6298547;22;20018;-84
2023/04/10 14:19:52;;;;;;;3.80;2.30;;;;;;;16.95;36.07;101052.28;6298574;22;20041;-80
2023/04/10 14:22:18;;;;;;;4.35;2.67;;;;;;;16.80;36.55;101048.00;6332293;22;20003;-85
2023/04/10 14:24:46;;;;;;;6.70;2.55;;;;;;;16.80;36.34;101050.66;6307092;22;20041;-80
2023/04/10 14:27:15;;;;;;;3.22;2.38;;;;;;;16.88;36.55;101048.69;6326791;22;20116;-83
2023/04/10 14:29:41;;;;;;;3.35;2.40;;;;;;;17.12;36.56;101046.66;6321631;22;20018;-80
2023/04/10 14:32:07;;;;;;;3.45;2.40;;;;;;;17.00;37.19;101047.16;6317826;22;20427;-79
2023/04/10 14:34:33;;;;;;;3.40;2.35;;;;;;;17.03;35.91;101045.97;6313460;22;20090;-81
2023/04/10 14:36:59;;;;;;;3.40;2.17;;;;;;;16.89;36.52;101042.31;6318269;22;20007;-83
2023/04/10 14:39:30;;;;;;;3.45;2.15;;;;;;;17.03;35.08;101041.41;6316556;22;20019;-79
2023/04/10 14:42:13;;;;;;;4.35;2.10;;;;;;;16.96;36.20;101034.34;6292134;22;20003;-84
2023/04/10 14:44:40;;;;;;;5.20;2.65;;;;;;;17.09;35.86;101025.63;6314199;22;20006;-82
2023/04/10 14:47:09;;;;;;;4.60;3.00;;;;;;;17.03;35.48;101024.53;6329658;22;20003;-83
2023/04/10 14:49:35;;;;;;;5.43;2.70;;;;;;;16.66;36.13;101030.97;6273867;22;20011;-83
2023/04/10 14:52:03;;;;;;;5.93;2.20;;;;;;;16.62;35.03;101016.28;6317067;22;20018;-81
2023/04/10 14:54:33;;;;;;;4.82;2.38;;;;;;;16.72;34.83;101027.50;6315610;22;20442;-80
2023/04/10 14:57:00;;;;;;;3.88;2.50;;;;;;;16.93;34.60;101034.75;6313290;22;20007;-83
2023/04/10 14:59:30;;;;;;;3.60;2.17;;;;;;;16.91;35.04;101024.22;6288830;22;20007;-82
2023/04/10 15:01:56;;;;;;;4.85;2.28;;;;;;;16.91;35.31;101024.22;6314195;22;20390;-82
2023/04/10 15:04:25;;;;;;;3.35;2.50;;;;;;;16.71;35.06;101025.84;6317580;22;20019;-82
2023/04/10 15:07:14;;;;;;;3.50;2.30;;;;;;;16.71;36.60;101020.50;6296411;22;20014;-81
2023/04/10 15:09:39;;;;;;;4.45;2.60;;;;;;;16.86;36.39;101012.44;6313764;22;20078;-81
2023/04/10 15:12:06;;;;;;;3.30;2.33;;;;;;;16.75;36.61;101013.75;6315727;22;20007;-81
2023/04/10 15:14:31;;;;;;;3.10;2.38;;;;;;;16.65;34.11;101015.06;6317512;22;20003;-81
2023/04/10 15:16:57;;;;;;;3.58;2.28;;;;;;;16.81;33.99;101007.63;6315916;22;20086;-79
2023/04/10 15:19:22;;;;;;;3.25;2.22;;;;;;;16.79;34.48;101006.16;6262538;22;20060;-80
2023/04/10 15:21:48;;;;;;;2.60;2.17;;;;;;;16.86;34.44;101007.91;6315215;22;20059;-84
2023/04/10 15:24:14;;;;;;;4.40;2.50;;;;;;;16.83;35.00;101000.25;6315583;22;20011;-82
2023/04/10 15:26:46;;;;;;;4.40;2.30;;;;;;;16.70;35.91;101008.16;6314980;22;20514;-82
2023/04/10 15:29:36;;;;;;;3.87;2.30;;;;;;;16.83;35.92;101002.94;6320918;22;20011;-82
2023/04/10 15:32:20;;;;;;;3.65;2.70;;;;;;;17.07;36.17;100996.34;6279638;22;20022;-81
2023/04/10 15:34:45;;;;;;;3.20;2.25;;;;;;;16.95;36.32;100990.69;6290765;22;20011;-80
2023/04/10 15:37:11;;;;;;;3.65;2.33;;;;;;;16.93;36.33;100992.75;6287381;22;20091;-83
2023/04/10 15:39:36;;;;;;;4.13;2.70;;;;;;;16.99;36.31;100997.31;6316369;22;20006;-83
2023/04/10 15:42:04;;;;;;;4.50;2.83;;;;;;;16.94;36.30;100998.91;6316886;22;20021;-83
2023/04/10 15:44:30;;;;;;;5.80;3.00;;;;;;;16.75;36.80;100986.16;6294669;22;20007;-82
2023/04/10 15:46:56;;;;;;;3.70;2.38;;;;;;;16.76;36.11;100994.00;6319273;22;20007;-81
2023/04/10 15:49:24;;;;;;;7.40;2.53;;;;;;;16.65;36.97;101005.19;6321956;22;20015;-80
2023/04/10 15:52:05;;;;;;;4.53;2.53;;;;;;;16.69;36.13;101001.13;6296733;22;20414;-83
2023/04/10 15:54:39;;;;;;;4.80;2.33;;;;;;;16.53;36.56;100996.00;6318958;22;20011;-83
2023/04/10 15:57:08;;;;;;;3.67;2.63;;;;;;;16.65;36.71;100997.16;6321298;22;20031;-83
2023/04/10 15:59:40;;;;;;;4.85;3.05;;;;;;;16.59;36.55;100997.09;6293470;22;20013;-82
2023/04/10 16:02:12;;;;;;;3.42;2.53;;;;;;;16.74;36.80;100998.69;6314592;22;20381;-89
2023/04/10 16:04:48;;;;;;;3.55;2.60;;;;;;;16.65;36.13;100994.50;6313665;22;20011;-81
2023/04/10 16:07:13;;;;;;;3.00;2.20;;;;;;;16.63;36.27;100996.53;6268352;22;20086;-79
2023/04/10 16:09:41;;;;;;;4.07;2.33;;;;;;;16.53;36.70;100990.63;6267627;22;20006;-81
2023/04/10 16:12:22;;;;;;;4.68;2.42;;;;;;;16.63;36.28;101001.06;6294155;22;20018;-81
2023/04/10 16:14:51;;;;;;;4.60;2.83;;;;;;;16.44;36.67;100992.59;6284596;22;20041;-81
2023/04/10 16:17:19;;;;;;;4.25;2.70;;;;;;;16.71;36.05;100992.91;6320160;22;19992;-78
2023/04/10 16:19:45;;;;;;;4.25;2.40;;;;;;;16.75;35.85;100992.34;6271950;22;20012;-81
2023/04/10 16:22:11;;;;;;;3.42;2.60;;;;;;;16.74;35.67;100981.81;6320862;22;20019;-80
2023/04/10 16:24:37;;;;;;;4.55;2.78;;;;;;;16.63;36.40;100990.34;6317681;22;20310;-82
2023/04/10 16:27:02;;;;;;;3.75;2.33;;;;;;;16.52;36.50;100988.97;6311052;22;20007;-80
2023/04/10 16:29:28;;;;;;;9.77;2.17;;;;;;;16.38;36.93;100992.50;6285070;22;20347;-81
2023/04/10 16:32:00;;;;;;;2.55;1.98;;;;;;;16.45;36.43;100988.06;6312794;22;20015;-79
2023/04/10 16:34:28;;;;;;;2.40;2.10;;;;;;;16.57;36.15;100986.59;6315261;22;20027;-81
2023/04/10 16:36:57;;;;;;;2.60;1.92;;;;;;;16.51;36.24;100992.66;6311532;22;20007;-79
2023/04/10 16:39:25;;;;;;;2.45;1.90;;;;;;;16.56;35.84;100984.09;6315432;22;20315;-82
2023/04/10 16:42:00;;;;;;;2.20;1.75;;;;;;;16.42;35.88;100989.28;6317513;22;20011;-83
2023/04/10 16:44:25;;;;;;;3.80;2.10;;;;;;;16.36;36.14;100989.22;6323183;22;20033;-81
2023/04/10 16:46:51;;;;;;;2.63;1.70;;;;;;;16.26;36.29;100984.16;6331184;22;20014;-82
2023/04/10 16:49:16;;;;;;;5.65;2.22;;;;;;;16.23;36.67;100986.38;6323280;22;20033;-79
2023/04/10 16:51:42;;;;;;;3.17;1.70;;;;;;;16.23;37.46;100979.19;6288516;22;20007;-80
2023/04/10 16:54:10;;;;;;;4.10;2.10;;;;;;;16.10;37.42;100979.03;6322262;22;20319;-80
2023/04/10 16:56:38;;;;;;;12.43;4.03;;;;;;;16.18;37.14;100980.75;6318769;22;20032;-82
2023/04/10 16:59:04;;;;;;;4.90;3.42;;;;;;;15.93;37.78;100967.69;6322813;22;20007;-82
2023/04/10 17:01:38;;;;;;;4.95;3.03;;;;;;;16.07;38.07;100975.91;6319957;22;20011;-83
2023/04/10 17:04:17;;;;;;;5.60;2.67;;;;;;;16.01;38.60;100967.59;6294952;22;20508;-85
2023/04/10 17:06:47;;;;;;;5.32;2.35;;;;;;;16.20;37.87;100968.88;6267437;22;20139;-84
2023/04/10 17:09:32;;;;;;;3.90;2.40;;;;;;;16.03;38.55;100968.25;6293149;22;20007;-85
2023/04/10 17:12:00;;;;;;;8.90;2.88;;;;;;;16.03;38.87;100968.25;6321933;22;20015;-83
2023/04/10 17:14:27;;;;;;;5.85;3.45;;;;;;;16.04;39.65;100969.09;6319425;22;20066;-83
2023/04/10 17:16:52;;;;;;;7.05;3.00;;;;;;;15.95;39.90;100960.31;6266716;22;20434;-82
2023/04/10 17:19:18;;;;;;;4.50;2.60;;;;;;;16.00;39.84;100960.59;6315533;22;20057;-86
2023/04/10 17:21:56;;;;;;;7.88;2.33;;;;;;;16.03;40.00;100952.19;6298246;22;19999;-86
2023/04/10 17:24:24;;;;;;;4.82;2.53;;;;;;;16.22;40.06;100965.97;6318590;22;20022;-82
2023/04/10 17:26:53;;;;;;;4.57;2.65;;;;;;;16.37;39.60;100956.91;6322562;22;20078;-83
2023/04/10 17:29:19;;;;;;;3.97;2.60;;;;;;;16.25;39.99;100954.91;6318676;22;20007;-82
2023/04/10 17:31:48;;;;;;;6.07;2.72;;;;;;;16.39;38.90;100962.06;6319724;22;20007;-81
2023/04/10 17:34:20;;;;;;;4.90;2.80;;;;;;;16.22;38.97;100949.94;6278814;22;20015;-80
2023/04/10 17:36:51;;;;;;;9.40;3.42;;;;;;;16.25;38.92;100957.59;6328926;22;20059;-84
2023/04/10 17:39:36;;;;;;;4.97;2.70;;;;;;;15.95;39.57;100960.31;6296848;22;20086;-86
2023/04/10 17:42:05;;;;;;;4.47;3.03;;;;;;;16.00;39.28;100949.91;6287970;22;20176;-89
2023/04/10 17:44:52;;;;;;;5.90;2.92;;;;;;;16.02;39.25;100955.88;6289139;22;20003;-83
2023/04/10 17:47:24;;;;;;;5.18;3.40;;;;;;;15.90;39.15;100957.38;6295243;22;20034;-86
2023/04/10 17:50:48;;;;;;;6.10;3.50;;;;;;;15.79;39.47;100952.50;6327956;22;20018;-85
2023/04/10 17:53:23;;;;;;;7.68;3.25;;;;;;;15.85;39.62;100956.25;6328021;22;20503;-83
2023/04/10 17:55:49;;;;;;;5.47;3.25;;;;;;;15.78;39.69;100958.84;6319356;22;20078;-84
2023/04/10 17:58:18;;;;;;;5.32;3.35;;;;;;;15.65;40.68;100958.66;6307948;22;20022;-84
2023/04/10 18:00:45;;;;;;;6.22;3.17;;;;;;;15.74;39.82;100962.91;6321620;22;20022;-83
2023/04/10 18:03:44;;;;;;;5.78;3.20;;;;;;;15.53;39.96;100954.81;6350957;22;20169;-82
2023/04/10 18:09:49;;;;;;;5.72;3.05;;;;;;;15.26;40.92;100952.72;6336841;22;20019;-86
2023/04/10 18:13:03;;;;;;;7.18;3.50;;;;;;;15.14;41.60;100949.66;6280962;22;20015;-85
2023/04/10 18:24:56;;;;;;;7.72;3.45;;;;;;;15.22;42.20;100959.41;6304892;22;20109;-83
2023/04/10 18:31:56;;;;;;;6.00;4.07;;;;;;;14.78;45.08;100970.78;6320428;22;20057;-83
2023/04/10 18:38:08;;;;;;;6.50;4.13;;;;;;;14.80;45.94;100973.31;6328998;22;20050;-83
2023/04/10 18:41:00;;;;;;;7.35;4.40;;;;;;;14.49;47.80;100982.19;6301220;22;20010;-84
2023/04/10 18:46:31;;;;;;;6.72;4.70;;;;;;;14.23;49.65;100988.78;6293436;22;20084;-85
2023/04/10 18:48:56;;;;;;;7.95;4.63;;;;;;;14.09;49.91;100994.84;6316634;22;20011;-83
2023/04/10 18:51:23;;;;;;;6.68;4.47;;;;;;;14.15;50.53;100987.00;6282872;22;20042;-88
2023/04/10 18:53:48;;;;;;;7.80;4.70;;;;;;;14.14;50.83;100993.34;6309724;22;20007;-86
2023/04/10 18:56:14;;;;;;;8.35;5.05;;;;;;;14.24;51.21;100998.47;6308927;22;20090;-87
2023/04/10 18:58:42;;;;;;;12.15;5.40;;;;;;;14.14;51.38;101008.50;6309255;22;20342;-85